sensor_id;sensor_type;location;lat;lon;timestamp;P1;durP1;ratioP1;P2;durP2;ratioP2
12383;SDS011;6256;63.808;20.336;2023-02-23T00:01:43;2.30;;;1.33;;
12383;SDS011;6256;63.808;20.336;2023-02-23T00:04:08;3.23;;;2.00;;
12383;SDS011;6256;63.808;20.336;2023-02-23T00:06:35;1.70;;;1.60;;
12383;SDS011;6256;63.808;20.336;2023-02-23T00:09:02;3.10;;;2.37;;
12383;SDS011;6256;63.808;20.336;2023-02-23T00:11:38;1.30;;;1.13;;
12383;SDS011;6256;63.808;20.336;2023-02-23T00:14:04;1.60;;;1.50;;
12383;SDS011;6256;63.808;20.336;2023-02-23T00:16:32;2.40;;;1.53;;
12383;SDS011;6256;63.808;20.336;2023-02-23T00:18:58;2.13;;;1.63;;
12383;SDS011;6256;63.808;20.336;2023-02-23T00:21:28;2.97;;;1.57;;
12383;SDS011;6256;63.808;20.336;2023-02-23T00:24:03;2.67;;;1.80;;
12383;SDS011;6256;63.808;20.336;2023-02-23T00:26:35;4.87;;;2.20;;
12383;SDS011;6256;63.808;20.336;2023-02-23T00:29:04;1.70;;;1.50;;
12383;SDS011;6256;63.808;20.336;2023-02-23T00:31:31;1.30;;;1.20;;
12383;SDS011;6256;63.808;20.336;2023-02-23T00:34:08;3.17;;;2.10;;
12383;SDS011;6256;63.808;20.336;2023-02-23T00:36:35;4.03;;;2.30;;
12383;SDS011;6256;63.808;20.336;2023-02-23T00:39:03;1.57;;;1.47;;
12383;SDS011;6256;63.808;20.336;2023-02-23T00:41:42;2.77;;;1.60;;
12383;SDS011;6256;63.808;20.336;2023-02-23T00:44:09;3.37;;;1.67;;
12383;SDS011;6256;63.808;20.336;2023-02-23T00:46:34;2.70;;;1.97;;
12383;SDS011;6256;63.808;20.336;2023-02-23T00:49:00;1.73;;;1.63;;
12383;SDS011;6256;63.808;20.336;2023-02-23T00:51:27;1.40;;;1.30;;
12383;SDS011;6256;63.808;20.336;2023-02-23T00:53:57;1.10;;;1.00;;
12383;SDS011;6256;63.808;20.336;2023-02-23T00:56:24;3.90;;;2.40;;
12383;SDS011;6256;63.808;20.336;2023-02-23T00:58:50;1.17;;;1.07;;
12383;SDS011;6256;63.808;20.336;2023-02-23T01:01:17;3.53;;;2.00;;
12383;SDS011;6256;63.808;20.336;2023-02-23T01:03:43;1.37;;;1.23;;
12383;SDS011;6256;63.808;20.336;2023-02-23T01:06:10;2.83;;;1.87;;
12383;SDS011;6256;63.808;20.336;2023-02-23T01:08:39;2.80;;;1.90;;
12383;SDS011;6256;63.808;20.336;2023-02-23T01:11:20;2.00;;;1.80;;
12383;SDS011;6256;63.808;20.336;2023-02-23T01:13:47;1.10;;;1.00;;
12383;SDS011;6256;63.808;20.336;2023-02-23T01:16:16;3.53;;;2.20;;
12383;SDS011;6256;63.808;20.336;2023-02-23T01:18:43;1.70;;;1.43;;
12383;SDS011;6256;63.808;20.336;2023-02-23T01:21:43;2.27;;;2.07;;
12383;SDS011;6256;63.808;20.336;2023-02-23T01:24:06;1.63;;;1.53;;
12383;SDS011;6256;63.808;20.336;2023-02-23T01:26:35;4.17;;;1.80;;
12383;SDS011;6256;63.808;20.336;2023-02-23T01:29:04;4.27;;;2.40;;
12383;SDS011;6256;63.808;20.336;2023-02-23T01:31:34;5.03;;;1.67;;
12383;SDS011;6256;63.808;20.336;2023-02-23T01:34:02;2.40;;;1.20;;
12383;SDS011;6256;63.808;20.336;2023-02-23T01:36:32;1.70;;;1.30;;
12383;SDS011;6256;63.808;20.336;2023-02-23T01:38:59;1.73;;;1.27;;
12383;SDS011;6256;63.808;20.336;2023-02-23T01:41:25;2.97;;;1.50;;
12383;SDS011;6256;63.808;20.336;2023-02-23T01:46:38;1.57;;;1.47;;
12383;SDS011;6256;63.808;20.336;2023-02-23T01:49:07;3.17;;;1.63;;
12383;SDS011;6256;63.808;20.336;2023-02-23T01:51:40;1.90;;;1.37;;
12383;SDS011;6256;63.808;20.336;2023-02-23T01:54:11;1.97;;;1.63;;
12383;SDS011;6256;63.808;20.336;2023-02-23T01:56:44;0.83;;;0.83;;
12383;SDS011;6256;63.808;20.336;2023-02-23T01:59:22;1.40;;;1.27;;
12383;SDS011;6256;63.808;20.336;2023-02-23T02:01:52;1.67;;;1.53;;
12383;SDS011;6256;63.808;20.336;2023-02-23T02:04:19;1.97;;;1.87;;
12383;SDS011;6256;63.808;20.336;2023-02-23T02:06:47;2.07;;;1.87;;
12383;SDS011;6256;63.808;20.336;2023-02-23T02:09:17;5.30;;;1.83;;
12383;SDS011;6256;63.808;20.336;2023-02-23T02:11:44;2.40;;;1.87;;
12383;SDS011;6256;63.808;20.336;2023-02-23T02:14:19;1.93;;;1.40;;
12383;SDS011;6256;63.808;20.336;2023-02-23T02:33:58;1.63;;;1.23;;
12383;SDS011;6256;63.808;20.336;2023-02-23T02:50:33;1.97;;;1.67;;
12383;SDS011;6256;63.808;20.336;2023-02-23T02:53:02;1.47;;;1.37;;
12383;SDS011;6256;63.808;20.336;2023-02-23T02:55:31;1.27;;;1.23;;
12383;SDS011;6256;63.808;20.336;2023-02-23T02:57:59;1.73;;;1.40;;
12383;SDS011;6256;63.808;20.336;2023-02-23T03:00:35;2.33;;;1.03;;
12383;SDS011;6256;63.808;20.336;2023-02-23T03:03:35;3.23;;;1.87;;
12383;SDS011;6256;63.808;20.336;2023-02-23T03:06:32;4.03;;;1.77;;
12383;SDS011;6256;63.808;20.336;2023-02-23T03:09:32;1.10;;;1.00;;
12383;SDS011;6256;63.808;20.336;2023-02-23T03:15:54;1.63;;;1.53;;
12383;SDS011;6256;63.808;20.336;2023-02-23T03:18:58;2.33;;;1.30;;
12383;SDS011;6256;63.808;20.336;2023-02-23T03:22:11;2.03;;;1.20;;
12383;SDS011;6256;63.808;20.336;2023-02-23T03:31:17;1.93;;;1.40;;
12383;SDS011;6256;63.808;20.336;2023-02-23T03:37:37;2.20;;;1.50;;
12383;SDS011;6256;63.808;20.336;2023-02-23T03:40:31;1.77;;;1.67;;
12383;SDS011;6256;63.808;20.336;2023-02-23T03:43:22;1.30;;;1.20;;
12383;SDS011;6256;63.808;20.336;2023-02-23T03:46:11;1.97;;;1.10;;
12383;SDS011;6256;63.808;20.336;2023-02-23T03:48:57;1.20;;;1.10;;
12383;SDS011;6256;63.808;20.336;2023-02-23T03:51:45;1.13;;;1.03;;
12383;SDS011;6256;63.808;20.336;2023-02-23T03:54:34;1.50;;;1.40;;
12383;SDS011;6256;63.808;20.336;2023-02-23T03:57:22;2.13;;;1.23;;
12383;SDS011;6256;63.808;20.336;2023-02-23T04:00:11;1.53;;;1.20;;
12383;SDS011;6256;63.808;20.336;2023-02-23T04:03:05;1.40;;;1.03;;
12383;SDS011;6256;63.808;20.336;2023-02-23T04:05:51;1.57;;;1.47;;
12383;SDS011;6256;63.808;20.336;2023-02-23T04:08:38;1.57;;;1.33;;
12383;SDS011;6256;63.808;20.336;2023-02-23T04:11:33;1.17;;;1.07;;
12383;SDS011;6256;63.808;20.336;2023-02-23T04:14:28;1.63;;;1.17;;
12383;SDS011;6256;63.808;20.336;2023-02-23T04:17:00;1.20;;;1.10;;
12383;SDS011;6256;63.808;20.336;2023-02-23T04:19:28;1.27;;;1.17;;
12383;SDS011;6256;63.808;20.336;2023-02-23T04:21:54;2.20;;;1.70;;
12383;SDS011;6256;63.808;20.336;2023-02-23T04:24:19;1.93;;;1.53;;
12383;SDS011;6256;63.808;20.336;2023-02-23T04:26:45;2.50;;;2.10;;
12383;SDS011;6256;63.808;20.336;2023-02-23T04:29:11;1.10;;;1.00;;
12383;SDS011;6256;63.808;20.336;2023-02-23T04:31:37;1.83;;;1.70;;
12383;SDS011;6256;63.808;20.336;2023-02-23T04:34:03;2.70;;;1.20;;
12383;SDS011;6256;63.808;20.336;2023-02-23T04:36:29;2.13;;;1.30;;
12383;SDS011;6256;63.808;20.336;2023-02-23T04:38:54;1.33;;;1.07;;
12383;SDS011;6256;63.808;20.336;2023-02-23T04:41:20;1.40;;;1.30;;
12383;SDS011;6256;63.808;20.336;2023-02-23T04:43:46;3.40;;;1.23;;
12383;SDS011;6256;63.808;20.336;2023-02-23T04:46:12;1.37;;;1.03;;
12383;SDS011;6256;63.808;20.336;2023-02-23T04:48:37;1.53;;;1.23;;
12383;SDS011;6256;63.808;20.336;2023-02-23T04:51:03;2.90;;;1.53;;
12383;SDS011;6256;63.808;20.336;2023-02-23T04:53:29;2.87;;;1.80;;
12383;SDS011;6256;63.808;20.336;2023-02-23T04:55:55;1.87;;;1.70;;
12383;SDS011;6256;63.808;20.336;2023-02-23T04:58:21;3.90;;;1.63;;
12383;SDS011;6256;63.808;20.336;2023-02-23T05:00:46;3.57;;;1.60;;
12383;SDS011;6256;63.808;20.336;2023-02-23T05:03:12;1.70;;;1.23;;
12383;SDS011;6256;63.808;20.336;2023-02-23T05:05:38;1.73;;;1.57;;
12383;SDS011;6256;63.808;20.336;2023-02-23T05:08:04;1.77;;;1.60;;
12383;SDS011;6256;63.808;20.336;2023-02-23T05:10:30;1.80;;;1.47;;
12383;SDS011;6256;63.808;20.336;2023-02-23T05:12:56;2.90;;;1.93;;
12383;SDS011;6256;63.808;20.336;2023-02-23T05:15:22;1.70;;;1.20;;
12383;SDS011;6256;63.808;20.336;2023-02-23T05:17:47;1.20;;;1.17;;
12383;SDS011;6256;63.808;20.336;2023-02-23T05:20:13;2.97;;;1.63;;
12383;SDS011;6256;63.808;20.336;2023-02-23T05:22:40;1.70;;;1.27;;
12383;SDS011;6256;63.808;20.336;2023-02-23T05:25:06;1.63;;;1.40;;
12383;SDS011;6256;63.808;20.336;2023-02-23T05:27:34;2.17;;;1.97;;
12383;SDS011;6256;63.808;20.336;2023-02-23T05:30:00;1.47;;;1.37;;
12383;SDS011;6256;63.808;20.336;2023-02-23T05:32:27;1.97;;;1.27;;
12383;SDS011;6256;63.808;20.336;2023-02-23T05:34:53;3.87;;;1.77;;
12383;SDS011;6256;63.808;20.336;2023-02-23T05:37:19;2.93;;;1.83;;
12383;SDS011;6256;63.808;20.336;2023-02-23T05:39:45;4.67;;;1.77;;
12383;SDS011;6256;63.808;20.336;2023-02-23T05:42:11;2.53;;;1.87;;
12383;SDS011;6256;63.808;20.336;2023-02-23T05:44:37;1.90;;;1.70;;
12383;SDS011;6256;63.808;20.336;2023-02-23T05:47:02;6.00;;;2.07;;
12383;SDS011;6256;63.808;20.336;2023-02-23T05:49:28;1.40;;;1.27;;
12383;SDS011;6256;63.808;20.336;2023-02-23T05:51:54;2.30;;;1.20;;
12383;SDS011;6256;63.808;20.336;2023-02-23T05:54:20;2.40;;;2.00;;
12383;SDS011;6256;63.808;20.336;2023-02-23T05:56:46;2.30;;;1.83;;
12383;SDS011;6256;63.808;20.336;2023-02-23T05:59:11;1.60;;;1.50;;
12383;SDS011;6256;63.808;20.336;2023-02-23T06:01:37;1.83;;;1.40;;
12383;SDS011;6256;63.808;20.336;2023-02-23T06:04:04;2.33;;;1.37;;
12383;SDS011;6256;63.808;20.336;2023-02-23T06:06:30;2.40;;;1.77;;
12383;SDS011;6256;63.808;20.336;2023-02-23T06:08:55;2.00;;;1.83;;
12383;SDS011;6256;63.808;20.336;2023-02-23T06:11:21;1.87;;;1.43;;
12383;SDS011;6256;63.808;20.336;2023-02-23T06:13:47;2.30;;;1.73;;
12383;SDS011;6256;63.808;20.336;2023-02-23T06:16:13;2.47;;;1.70;;
12383;SDS011;6256;63.808;20.336;2023-02-23T06:18:38;1.20;;;1.13;;
12383;SDS011;6256;63.808;20.336;2023-02-23T06:21:04;2.60;;;1.23;;
12383;SDS011;6256;63.808;20.336;2023-02-23T06:23:30;1.87;;;1.47;;
12383;SDS011;6256;63.808;20.336;2023-02-23T06:25:57;4.30;;;2.00;;
12383;SDS011;6256;63.808;20.336;2023-02-23T06:28:23;2.73;;;1.70;;
12383;SDS011;6256;63.808;20.336;2023-02-23T06:30:51;2.33;;;1.57;;
12383;SDS011;6256;63.808;20.336;2023-02-23T06:33:17;2.30;;;2.03;;
12383;SDS011;6256;63.808;20.336;2023-02-23T06:35:43;2.80;;;1.70;;
12383;SDS011;6256;63.808;20.336;2023-02-23T06:38:09;2.13;;;1.73;;
12383;SDS011;6256;63.808;20.336;2023-02-23T06:40:36;1.83;;;1.20;;
12383;SDS011;6256;63.808;20.336;2023-02-23T06:43:02;1.23;;;1.20;;
12383;SDS011;6256;63.808;20.336;2023-02-23T06:45:29;1.50;;;1.40;;
12383;SDS011;6256;63.808;20.336;2023-02-23T06:47:56;1.53;;;1.37;;
12383;SDS011;6256;63.808;20.336;2023-02-23T06:50:22;1.40;;;1.30;;
12383;SDS011;6256;63.808;20.336;2023-02-23T06:52:48;4.23;;;2.03;;
12383;SDS011;6256;63.808;20.336;2023-02-23T06:55:13;2.23;;;1.87;;
12383;SDS011;6256;63.808;20.336;2023-02-23T06:57:39;2.10;;;1.40;;
12383;SDS011;6256;63.808;20.336;2023-02-23T07:00:06;2.33;;;1.30;;
12383;SDS011;6256;63.808;20.336;2023-02-23T07:02:33;1.77;;;1.60;;
12383;SDS011;6256;63.808;20.336;2023-02-23T07:05:00;3.73;;;1.33;;
12383;SDS011;6256;63.808;20.336;2023-02-23T07:07:26;1.90;;;1.40;;
12383;SDS011;6256;63.808;20.336;2023-02-23T07:09:52;1.77;;;1.47;;
12383;SDS011;6256;63.808;20.336;2023-02-23T07:12:17;2.77;;;1.90;;
12383;SDS011;6256;63.808;20.336;2023-02-23T07:14:43;2.87;;;1.87;;
12383;SDS011;6256;63.808;20.336;2023-02-23T07:17:09;2.53;;;1.40;;
12383;SDS011;6256;63.808;20.336;2023-02-23T07:19:35;1.33;;;1.23;;
12383;SDS011;6256;63.808;20.336;2023-02-23T07:22:00;1.87;;;1.30;;
12383;SDS011;6256;63.808;20.336;2023-02-23T07:24:26;1.83;;;1.63;;
12383;SDS011;6256;63.808;20.336;2023-02-23T07:26:52;3.67;;;1.57;;
12383;SDS011;6256;63.808;20.336;2023-02-23T07:29:18;3.60;;;1.83;;
12383;SDS011;6256;63.808;20.336;2023-02-23T07:31:44;1.40;;;1.27;;
12383;SDS011;6256;63.808;20.336;2023-02-23T07:34:10;1.63;;;1.27;;
12383;SDS011;6256;63.808;20.336;2023-02-23T07:36:36;1.40;;;1.30;;
12383;SDS011;6256;63.808;20.336;2023-02-23T07:39:04;2.77;;;1.70;;
12383;SDS011;6256;63.808;20.336;2023-02-23T07:41:30;1.80;;;1.57;;
12383;SDS011;6256;63.808;20.336;2023-02-23T07:43:57;1.30;;;1.20;;
12383;SDS011;6256;63.808;20.336;2023-02-23T07:46:24;3.87;;;1.60;;
12383;SDS011;6256;63.808;20.336;2023-02-23T07:48:50;1.97;;;1.50;;
12383;SDS011;6256;63.808;20.336;2023-02-23T07:51:16;2.80;;;1.27;;
12383;SDS011;6256;63.808;20.336;2023-02-23T07:53:44;2.17;;;1.40;;
12383;SDS011;6256;63.808;20.336;2023-02-23T07:56:11;1.20;;;1.10;;
12383;SDS011;6256;63.808;20.336;2023-02-23T07:58:37;1.60;;;1.50;;
12383;SDS011;6256;63.808;20.336;2023-02-23T08:01:04;3.23;;;1.60;;
12383;SDS011;6256;63.808;20.336;2023-02-23T08:03:30;2.53;;;1.60;;
12383;SDS011;6256;63.808;20.336;2023-02-23T08:05:55;1.97;;;1.40;;
12383;SDS011;6256;63.808;20.336;2023-02-23T08:08:21;1.20;;;1.10;;
12383;SDS011;6256;63.808;20.336;2023-02-23T08:10:47;2.37;;;1.33;;
12383;SDS011;6256;63.808;20.336;2023-02-23T08:13:13;1.40;;;1.30;;
12383;SDS011;6256;63.808;20.336;2023-02-23T08:15:40;2.17;;;1.50;;
12383;SDS011;6256;63.808;20.336;2023-02-23T08:18:05;1.47;;;1.30;;
12383;SDS011;6256;63.808;20.336;2023-02-23T08:20:31;2.80;;;1.40;;
12383;SDS011;6256;63.808;20.336;2023-02-23T08:22:57;1.20;;;1.10;;
12383;SDS011;6256;63.808;20.336;2023-02-23T08:25:23;1.93;;;1.60;;
12383;SDS011;6256;63.808;20.336;2023-02-23T08:27:51;1.23;;;1.13;;
12383;SDS011;6256;63.808;20.336;2023-02-23T08:30:18;2.60;;;1.33;;
12383;SDS011;6256;63.808;20.336;2023-02-23T08:32:45;1.03;;;1.03;;
12383;SDS011;6256;63.808;20.336;2023-02-23T08:35:11;1.53;;;1.13;;
12383;SDS011;6256;63.808;20.336;2023-02-23T08:37:37;2.63;;;1.70;;
12383;SDS011;6256;63.808;20.336;2023-02-23T08:40:03;1.13;;;0.90;;
12383;SDS011;6256;63.808;20.336;2023-02-23T08:42:29;1.93;;;1.37;;
12383;SDS011;6256;63.808;20.336;2023-02-23T08:44:56;1.47;;;1.07;;
12383;SDS011;6256;63.808;20.336;2023-02-23T08:47:23;1.93;;;1.10;;
12383;SDS011;6256;63.808;20.336;2023-02-23T08:49:49;2.10;;;1.30;;
12383;SDS011;6256;63.808;20.336;2023-02-23T08:52:15;1.70;;;1.50;;
12383;SDS011;6256;63.808;20.336;2023-02-23T08:54:41;1.43;;;1.33;;
12383;SDS011;6256;63.808;20.336;2023-02-23T08:57:06;0.97;;;0.93;;
12383;SDS011;6256;63.808;20.336;2023-02-23T08:59:32;2.27;;;1.40;;
12383;SDS011;6256;63.808;20.336;2023-02-23T09:01:58;1.90;;;1.23;;
12383;SDS011;6256;63.808;20.336;2023-02-23T09:04:24;1.40;;;1.30;;
12383;SDS011;6256;63.808;20.336;2023-02-23T09:06:51;1.40;;;1.23;;
12383;SDS011;6256;63.808;20.336;2023-02-23T09:09:17;1.60;;;1.40;;
12383;SDS011;6256;63.808;20.336;2023-02-23T09:11:42;1.70;;;1.40;;
12383;SDS011;6256;63.808;20.336;2023-02-23T09:14:08;4.00;;;1.40;;
12383;SDS011;6256;63.808;20.336;2023-02-23T09:16:34;1.17;;;1.13;;
12383;SDS011;6256;63.808;20.336;2023-02-23T09:19:01;1.30;;;1.20;;
12383;SDS011;6256;63.808;20.336;2023-02-23T09:21:28;2.73;;;1.20;;
12383;SDS011;6256;63.808;20.336;2023-02-23T09:23:54;1.43;;;1.00;;
12383;SDS011;6256;63.808;20.336;2023-02-23T09:26:21;2.47;;;1.43;;
12383;SDS011;6256;63.808;20.336;2023-02-23T09:28:47;3.13;;;1.53;;
12383;SDS011;6256;63.808;20.336;2023-02-23T09:31:16;2.00;;;1.17;;
12383;SDS011;6256;63.808;20.336;2023-02-23T09:33:44;2.47;;;1.23;;
12383;SDS011;6256;63.808;20.336;2023-02-23T09:36:14;2.47;;;1.03;;
12383;SDS011;6256;63.808;20.336;2023-02-23T09:38:41;2.30;;;1.50;;
12383;SDS011;6256;63.808;20.336;2023-02-23T09:49:19;1.53;;;1.30;;
12383;SDS011;6256;63.808;20.336;2023-02-23T09:51:50;1.00;;;1.00;;
12383;SDS011;6256;63.808;20.336;2023-02-23T09:54:22;0.90;;;0.90;;
12383;SDS011;6256;63.808;20.336;2023-02-23T09:56:50;3.63;;;1.23;;
12383;SDS011;6256;63.808;20.336;2023-02-23T09:59:20;1.63;;;1.07;;
12383;SDS011;6256;63.808;20.336;2023-02-23T10:06:47;1.60;;;1.13;;
12383;SDS011;6256;63.808;20.336;2023-02-23T10:23:53;2.10;;;1.23;;
12383;SDS011;6256;63.808;20.336;2023-02-23T10:26:21;3.87;;;1.43;;
12383;SDS011;6256;63.808;20.336;2023-02-23T10:28:50;1.97;;;1.10;;
12383;SDS011;6256;63.808;20.336;2023-02-23T10:31:25;6.83;;;1.30;;
12383;SDS011;6256;63.808;20.336;2023-02-23T10:34:08;1.30;;;0.90;;
12383;SDS011;6256;63.808;20.336;2023-02-23T10:36:40;1.50;;;0.63;;
12383;SDS011;6256;63.808;20.336;2023-02-23T10:39:10;1.60;;;1.17;;
12383;SDS011;6256;63.808;20.336;2023-02-23T10:41:38;3.70;;;1.23;;
12383;SDS011;6256;63.808;20.336;2023-02-23T10:44:04;0.70;;;0.70;;
12383;SDS011;6256;63.808;20.336;2023-02-23T10:46:40;2.00;;;0.83;;
12383;SDS011;6256;63.808;20.336;2023-02-23T10:49:06;2.37;;;0.70;;
12383;SDS011;6256;63.808;20.336;2023-02-23T10:51:41;1.27;;;1.07;;
12383;SDS011;6256;63.808;20.336;2023-02-23T10:57:04;3.97;;;0.87;;
12383;SDS011;6256;63.808;20.336;2023-02-23T10:59:31;2.53;;;1.00;;
12383;SDS011;6256;63.808;20.336;2023-02-23T11:01:58;1.90;;;1.10;;
12383;SDS011;6256;63.808;20.336;2023-02-23T11:04:38;2.50;;;1.17;;
12383;SDS011;6256;63.808;20.336;2023-02-23T11:07:18;1.13;;;1.03;;
12383;SDS011;6256;63.808;20.336;2023-02-23T11:09:47;1.77;;;0.73;;
12383;SDS011;6256;63.808;20.336;2023-02-23T11:14:46;2.30;;;1.00;;
12383;SDS011;6256;63.808;20.336;2023-02-23T11:17:30;1.70;;;0.90;;
12383;SDS011;6256;63.808;20.336;2023-02-23T11:20:05;1.43;;;0.80;;
12383;SDS011;6256;63.808;20.336;2023-02-23T11:22:44;2.60;;;0.80;;
12383;SDS011;6256;63.808;20.336;2023-02-23T11:25:24;1.40;;;1.13;;
12383;SDS011;6256;63.808;20.336;2023-02-23T11:27:53;4.10;;;1.00;;
12383;SDS011;6256;63.808;20.336;2023-02-23T11:30:21;1.60;;;0.97;;
12383;SDS011;6256;63.808;20.336;2023-02-23T11:32:56;2.67;;;1.10;;
12383;SDS011;6256;63.808;20.336;2023-02-23T11:35:33;2.80;;;0.80;;
12383;SDS011;6256;63.808;20.336;2023-02-23T11:37:59;0.80;;;0.80;;
12383;SDS011;6256;63.808;20.336;2023-02-23T11:41:06;2.47;;;1.10;;
12383;SDS011;6256;63.808;20.336;2023-02-23T11:43:47;0.97;;;0.90;;
12383;SDS011;6256;63.808;20.336;2023-02-23T11:46:17;2.70;;;1.53;;
12383;SDS011;6256;63.808;20.336;2023-02-23T11:48:50;2.37;;;0.97;;
12383;SDS011;6256;63.808;20.336;2023-02-23T11:51:29;1.00;;;0.67;;
12383;SDS011;6256;63.808;20.336;2023-02-23T11:54:00;3.60;;;1.00;;
12383;SDS011;6256;63.808;20.336;2023-02-23T11:56:28;0.67;;;0.67;;
12383;SDS011;6256;63.808;20.336;2023-02-23T11:58:58;1.80;;;0.87;;
12383;SDS011;6256;63.808;20.336;2023-02-23T12:02:01;3.03;;;0.70;;
12383;SDS011;6256;63.808;20.336;2023-02-23T12:04:28;2.10;;;0.80;;
12383;SDS011;6256;63.808;20.336;2023-02-23T12:09:48;1.13;;;1.00;;
12383;SDS011;6256;63.808;20.336;2023-02-23T12:12:21;3.07;;;1.00;;
12383;SDS011;6256;63.808;20.336;2023-02-23T12:14:50;1.03;;;0.93;;
12383;SDS011;6256;63.808;20.336;2023-02-23T12:17:24;0.60;;;0.60;;
12383;SDS011;6256;63.808;20.336;2023-02-23T12:20:03;2.83;;;0.83;;
12383;SDS011;6256;63.808;20.336;2023-02-23T12:22:45;0.80;;;0.80;;
12383;SDS011;6256;63.808;20.336;2023-02-23T12:25:35;0.87;;;0.80;;
12383;SDS011;6256;63.808;20.336;2023-02-23T12:28:30;1.07;;;0.80;;
12383;SDS011;6256;63.808;20.336;2023-02-23T12:31:05;1.20;;;0.60;;
12383;SDS011;6256;63.808;20.336;2023-02-23T12:33:45;1.90;;;1.07;;
12383;SDS011;6256;63.808;20.336;2023-02-23T12:36:18;0.73;;;0.73;;
12383;SDS011;6256;63.808;20.336;2023-02-23T12:38:59;1.63;;;1.20;;
12383;SDS011;6256;63.808;20.336;2023-02-23T12:44:09;2.70;;;1.17;;
12383;SDS011;6256;63.808;20.336;2023-02-23T12:46:46;1.47;;;0.70;;
12383;SDS011;6256;63.808;20.336;2023-02-23T12:49:34;2.03;;;0.43;;
12383;SDS011;6256;63.808;20.336;2023-02-23T12:52:24;0.47;;;0.43;;
12383;SDS011;6256;63.808;20.336;2023-02-23T12:54:53;1.70;;;0.67;;
12383;SDS011;6256;63.808;20.336;2023-02-23T12:57:25;0.60;;;0.60;;
12383;SDS011;6256;63.808;20.336;2023-02-23T13:11:47;1.40;;;0.70;;
12383;SDS011;6256;63.808;20.336;2023-02-23T13:14:42;0.47;;;0.37;;
12383;SDS011;6256;63.808;20.336;2023-02-23T13:20:14;1.03;;;0.60;;
12383;SDS011;6256;63.808;20.336;2023-02-23T13:25:31;2.00;;;0.73;;
12383;SDS011;6256;63.808;20.336;2023-02-23T13:28:05;0.40;;;0.37;;
12383;SDS011;6256;63.808;20.336;2023-02-23T13:30:38;0.60;;;0.50;;
12383;SDS011;6256;63.808;20.336;2023-02-23T13:33:26;0.83;;;0.63;;
12383;SDS011;6256;63.808;20.336;2023-02-23T13:35:59;1.83;;;1.23;;
12383;SDS011;6256;63.808;20.336;2023-02-23T13:38:33;1.67;;;0.67;;
12383;SDS011;6256;63.808;20.336;2023-02-23T13:46:39;0.40;;;0.40;;
12383;SDS011;6256;63.808;20.336;2023-02-23T13:51:43;2.90;;;0.70;;
12383;SDS011;6256;63.808;20.336;2023-02-23T13:56:57;1.00;;;0.63;;
12383;SDS011;6256;63.808;20.336;2023-02-23T13:59:29;1.13;;;0.80;;
12383;SDS011;6256;63.808;20.336;2023-02-23T14:02:18;0.30;;;0.30;;
12383;SDS011;6256;63.808;20.336;2023-02-23T14:04:47;1.33;;;0.67;;
12383;SDS011;6256;63.808;20.336;2023-02-23T14:07:20;1.60;;;0.60;;
12383;SDS011;6256;63.808;20.336;2023-02-23T14:09:53;1.27;;;0.63;;
12383;SDS011;6256;63.808;20.336;2023-02-23T14:12:34;0.53;;;0.50;;
12383;SDS011;6256;63.808;20.336;2023-02-23T14:17:55;0.50;;;0.43;;
12383;SDS011;6256;63.808;20.336;2023-02-23T14:20:39;0.80;;;0.73;;
12383;SDS011;6256;63.808;20.336;2023-02-23T14:25:52;0.53;;;0.53;;
12383;SDS011;6256;63.808;20.336;2023-02-23T14:28:36;1.90;;;0.40;;
12383;SDS011;6256;63.808;20.336;2023-02-23T14:31:37;1.07;;;0.60;;
12383;SDS011;6256;63.808;20.336;2023-02-23T14:33:57;0.67;;;0.67;;
12383;SDS011;6256;63.808;20.336;2023-02-23T14:41:28;1.70;;;0.53;;
12383;SDS011;6256;63.808;20.336;2023-02-23T14:44:13;0.50;;;0.50;;
12383;SDS011;6256;63.808;20.336;2023-02-23T14:46:47;0.43;;;0.40;;
12383;SDS011;6256;63.808;20.336;2023-02-23T14:49:20;0.30;;;0.30;;
12383;SDS011;6256;63.808;20.336;2023-02-23T14:51:59;2.27;;;0.63;;
12383;SDS011;6256;63.808;20.336;2023-02-23T14:54:33;0.40;;;0.40;;
12383;SDS011;6256;63.808;20.336;2023-02-23T14:57:00;2.63;;;0.53;;
12383;SDS011;6256;63.808;20.336;2023-02-23T14:59:29;3.43;;;0.70;;
12383;SDS011;6256;63.808;20.336;2023-02-23T15:02:07;2.23;;;0.80;;
12383;SDS011;6256;63.808;20.336;2023-02-23T15:04:35;2.43;;;0.60;;
12383;SDS011;6256;63.808;20.336;2023-02-23T15:07:04;1.30;;;0.53;;
12383;SDS011;6256;63.808;20.336;2023-02-23T15:09:32;1.07;;;0.20;;
12383;SDS011;6256;63.808;20.336;2023-02-23T15:12:45;3.40;;;0.47;;
12383;SDS011;6256;63.808;20.336;2023-02-23T15:14:59;0.30;;;0.30;;
12383;SDS011;6256;63.808;20.336;2023-02-23T15:17:27;2.33;;;0.60;;
12383;SDS011;6256;63.808;20.336;2023-02-23T15:20:06;0.70;;;0.50;;
12383;SDS011;6256;63.808;20.336;2023-02-23T15:22:36;0.30;;;0.30;;
12383;SDS011;6256;63.808;20.336;2023-02-23T15:25:16;1.03;;;0.40;;
12383;SDS011;6256;63.808;20.336;2023-02-23T15:27:43;1.73;;;0.37;;
12383;SDS011;6256;63.808;20.336;2023-02-23T15:33:11;1.43;;;0.47;;
12383;SDS011;6256;63.808;20.336;2023-02-23T15:35:45;0.30;;;0.30;;
12383;SDS011;6256;63.808;20.336;2023-02-23T15:38:19;0.77;;;0.50;;
12383;SDS011;6256;63.808;20.336;2023-02-23T15:40:55;1.27;;;0.60;;
12383;SDS011;6256;63.808;20.336;2023-02-23T15:43:22;0.47;;;0.47;;
12383;SDS011;6256;63.808;20.336;2023-02-23T15:45:50;0.93;;;0.33;;
12383;SDS011;6256;63.808;20.336;2023-02-23T15:48:22;0.63;;;0.63;;
12383;SDS011;6256;63.808;20.336;2023-02-23T15:50:53;1.60;;;0.50;;
12383;SDS011;6256;63.808;20.336;2023-02-23T15:56:11;3.20;;;0.70;;
12383;SDS011;6256;63.808;20.336;2023-02-23T15:58:40;0.50;;;0.50;;
12383;SDS011;6256;63.808;20.336;2023-02-23T16:01:46;0.70;;;0.70;;
12383;SDS011;6256;63.808;20.336;2023-02-23T16:14:33;0.37;;;0.37;;
12383;SDS011;6256;63.808;20.336;2023-02-23T16:17:19;0.63;;;0.63;;
12383;SDS011;6256;63.808;20.336;2023-02-23T16:19:55;1.27;;;0.67;;
12383;SDS011;6256;63.808;20.336;2023-02-23T16:22:38;1.97;;;0.67;;
12383;SDS011;6256;63.808;20.336;2023-02-23T16:25:10;1.70;;;1.07;;
12383;SDS011;6256;63.808;20.336;2023-02-23T16:27:39;0.40;;;0.40;;
12383;SDS011;6256;63.808;20.336;2023-02-23T16:32:47;0.30;;;0.30;;
12383;SDS011;6256;63.808;20.336;2023-02-23T16:35:32;1.23;;;0.40;;
12383;SDS011;6256;63.808;20.336;2023-02-23T16:40:49;0.40;;;0.40;;
12383;SDS011;6256;63.808;20.336;2023-02-23T16:43:15;0.83;;;0.70;;
12383;SDS011;6256;63.808;20.336;2023-02-23T16:45:41;4.50;;;0.70;;
12383;SDS011;6256;63.808;20.336;2023-02-23T16:48:11;0.53;;;0.53;;
12383;SDS011;6256;63.808;20.336;2023-02-23T16:50:38;3.80;;;0.60;;
12383;SDS011;6256;63.808;20.336;2023-02-23T16:53:08;1.57;;;0.50;;
12383;SDS011;6256;63.808;20.336;2023-02-23T16:56:07;0.40;;;0.40;;
12383;SDS011;6256;63.808;20.336;2023-02-23T16:58:26;0.50;;;0.50;;
12383;SDS011;6256;63.808;20.336;2023-02-23T17:00:54;0.50;;;0.50;;
12383;SDS011;6256;63.808;20.336;2023-02-23T17:03:22;3.30;;;0.40;;
12383;SDS011;6256;63.808;20.336;2023-02-23T17:05:49;0.97;;;0.73;;
12383;SDS011;6256;63.808;20.336;2023-02-23T17:08:14;0.57;;;0.40;;
12383;SDS011;6256;63.808;20.336;2023-02-23T17:10:41;0.77;;;0.67;;
12383;SDS011;6256;63.808;20.336;2023-02-23T17:13:16;8.90;;;0.97;;
12383;SDS011;6256;63.808;20.336;2023-02-23T17:15:45;1.67;;;0.70;;
12383;SDS011;6256;63.808;20.336;2023-02-23T17:18:18;2.37;;;0.30;;
12383;SDS011;6256;63.808;20.336;2023-02-23T17:20:44;0.47;;;0.47;;
12383;SDS011;6256;63.808;20.336;2023-02-23T17:23:10;0.50;;;0.50;;
12383;SDS011;6256;63.808;20.336;2023-02-23T17:25:37;0.50;;;0.50;;
12383;SDS011;6256;63.808;20.336;2023-02-23T17:28:03;0.40;;;0.40;;
12383;SDS011;6256;63.808;20.336;2023-02-23T17:30:29;1.90;;;0.40;;
12383;SDS011;6256;63.808;20.336;2023-02-23T17:32:56;3.23;;;0.60;;
12383;SDS011;6256;63.808;20.336;2023-02-23T17:35:23;0.80;;;0.50;;
12383;SDS011;6256;63.808;20.336;2023-02-23T17:37:50;3.90;;;0.80;;
12383;SDS011;6256;63.808;20.336;2023-02-23T17:40:23;0.93;;;0.50;;